Time;durP1;ratioP1;P1;durP2;ratioP2;P2;SDS_P1;SDS_P2;PMS_P1;PMS_P2;Temp;Humidity;BMP_temperature;BMP_pressure;BME280_temperature;BME280_humidity;BME280_pressure;Samples;Min_cycle;Max_cycle;Signal;HPM_P1;HPM_P2
2022/05/01 00:01:00;;;;;;;8.70;6.33;;;10.80;99.90;;;;;;5060466;28;20202;-55
2022/05/01 00:03:36;;;;;;;6.97;5.63;;;10.80;1.00;;;;;;5060291;28;20211;-53
2022/05/01 00:06:06;;;;;;;8.87;5.70;;;10.80;1.00;;;;;;5061152;28;20277;-54
2022/05/01 00:08:34;;;;;;;7.63;5.93;;;10.70;1.00;;;;;;5060086;28;20301;-53
2022/05/01 00:11:01;;;;;;;8.27;6.60;;;10.70;1.00;;;;;;5058287;28;20293;-54
2022/05/01 00:13:40;;;;;;;7.60;5.57;;;10.60;99.90;;;;;;5058991;28;20241;-53
2022/05/01 00:16:07;;;;;;;7.60;6.00;;;10.50;1.00;;;;;;5057860;28;20542;-53
2022/05/01 00:18:35;;;;;;;6.60;5.83;;;10.50;99.90;;;;;;5047788;28;20621;-57
2022/05/01 00:21:02;;;;;;;7.70;5.60;;;10.60;99.90;;;;;;5056867;28;20196;-53
2022/05/01 00:23:29;;;;;;;7.63;5.60;;;10.60;99.90;;;;;;5054287;28;20233;-54
2022/05/01 00:25:58;;;;;;;9.97;5.97;;;10.50;99.90;;;;;;5060919;28;20286;-54
2022/05/01 00:28:24;;;;;;;8.67;6.13;;;10.50;99.90;;;;;;5055958;28;20198;-55
2022/05/01 00:30:51;;;;;;;7.17;6.07;;;10.50;99.90;;;;;;5054988;28;20219;-55
2022/05/01 00:38:49;;;;;;;9.20;5.87;;;10.50;99.90;;;;;;5058682;28;20295;-55
2022/05/01 00:41:16;;;;;;;9.77;6.03;;;10.50;1.00;;;;;;5060340;28;20242;-55
2022/05/01 00:44:11;;;;;;;7.93;5.50;;;10.60;99.90;;;;;;5059974;28;20199;-54
2022/05/01 00:46:52;;;;;;;8.33;5.77;;;10.80;1.00;;;;;;5058574;28;20302;-53
2022/05/01 00:49:23;;;;;;;8.33;5.53;;;10.80;1.00;;;;;;5056643;28;20199;-52
2022/05/01 00:51:49;;;;;;;9.70;6.53;;;10.70;1.00;;;;;;5053036;28;20302;-54
2022/05/01 00:54:19;;;;;;;10.73;6.43;;;10.60;1.00;;;;;;5057015;28;20705;-54
2022/05/01 00:56:49;;;;;;;6.90;5.67;;;10.60;37.60;;;;;;5059948;28;20202;-56
2022/05/01 00:59:17;;;;;;;7.83;5.97;;;10.60;99.90;;;;;;5058408;28;20285;-55
2022/05/01 01:01:46;;;;;;;10.23;6.37;;;10.70;62.90;;;;;;5052402;28;20293;-55
2022/05/01 01:04:13;;;;;;;6.53;5.77;;;10.70;99.90;;;;;;5056282;28;20202;-54
2022/05/01 01:06:42;;;;;;;9.80;6.00;;;10.70;99.90;;;;;;5053047;28;20324;-56
2022/05/01 01:09:09;;;;;;;9.37;5.97;;;10.60;99.90;;;;;;5058098;28;20203;-55
2022/05/01 01:11:38;;;;;;;12.53;6.17;;;10.50;99.90;;;;;;5058960;28;20419;-54
2022/05/01 01:14:06;;;;;;;8.73;6.50;;;10.30;1.00;;;;;;5057831;28;20305;-55
2022/05/01 01:16:37;;;;;;;8.10;6.70;;;10.40;38.40;;;;;;5063598;28;20202;-54
2022/05/01 01:19:06;;;;;;;9.70;6.60;;;10.40;1.00;;;;;;5056173;28;20199;-54
2022/05/01 01:21:36;;;;;;;7.47;6.13;;;10.40;1.00;;;;;;5062647;28;20668;-53
2022/05/01 01:24:06;;;;;;;8.73;6.63;;;10.50;1.00;;;;;;5058450;28;20207;-55
2022/05/01 01:26:34;;;;;;;12.33;8.00;;;10.50;1.00;;;;;;5054432;28;20208;-55
2022/05/01 01:31:40;;;;;;;8.87;6.70;;;10.50;17.00;;;;;;5063346;28;20229;-54
2022/05/01 01:31:50;;;;;;;9.57;6.07;;;10.40;99.90;;;;;;5063289;28;20214;-54
2022/05/01 01:34:21;;;;;;;8.93;6.90;;;10.40;1.00;;;;;;5058215;28;20218;-54
2022/05/01 01:36:50;;;;;;;8.87;7.50;;;10.40;99.90;;;;;;5048896;28;20333;-54
2022/05/01 01:39:18;;;;;;;8.87;6.50;;;10.40;99.90;;;;;;5058849;28;20202;-54
2022/05/01 01:41:47;;;;;;;9.43;6.73;;;10.30;1.00;;;;;;5061890;28;20729;-54
2022/05/01 01:44:15;;;;;;;8.87;7.07;;;10.40;1.00;;;;;;5065074;28;20210;-54
2022/05/01 01:46:42;;;;;;;8.03;6.60;;;10.40;1.00;;;;;;5062378;28;20257;-54
2022/05/01 01:49:12;;;;;;;8.50;6.97;;;10.40;1.00;;;;;;5062298;28;20231;-55
2022/05/01 01:51:39;;;;;;;8.47;7.30;;;10.30;1.00;;;;;;5059831;28;20204;-56
2022/05/01 01:54:06;;;;;;;8.50;6.83;;;10.40;1.00;;;;;;5062717;28;20233;-54
2022/05/01 01:56:37;;;;;;;10.17;7.83;;;10.30;1.00;;;;;;5062231;28;20729;-54
2022/05/01 01:59:04;;;;;;;10.83;7.40;;;10.20;56.20;;;;;;5062707;28;20202;-55
2022/05/01 02:01:30;;;;;;;9.73;7.67;;;10.10;99.90;;;;;;5061823;28;20232;-55
2022/05/01 02:03:57;;;;;;;10.20;7.90;;;9.90;99.90;;;;;;5059116;28;20272;-54
2022/05/01 02:06:25;;;;;;;9.50;7.53;;;10.00;1.00;;;;;;5058610;28;20774;-56
2022/05/01 02:08:52;;;;;;;10.23;8.20;;;10.20;1.00;;;;;;5062025;28;20522;-55
2022/05/01 02:11:20;;;;;;;11.57;7.97;;;10.10;1.00;;;;;;5057672;28;20199;-54
2022/05/01 02:13:47;;;;;;;13.07;8.97;;;10.10;1.00;;;;;;5054342;28;20356;-54
2022/05/01 02:16:13;;;;;;;13.67;8.63;;;9.80;99.90;;;;;;5054718;28;20242;-56
2022/05/01 02:18:40;;;;;;;11.30;8.50;;;9.20;99.90;;;;;;5051259;28;20205;-54
2022/05/01 02:23:52;;;;;;;15.13;9.27;;;8.80;1.00;;;;;;5043358;28;20208;-55
2022/05/01 02:26:19;;;;;;;14.33;9.60;;;8.90;1.00;;;;;;5066276;28;20606;-54
2022/05/01 02:28:46;;;;;;;13.17;9.60;;;9.00;1.00;;;;;;5053138;28;20298;-54
2022/05/01 02:31:13;;;;;;;13.23;10.03;;;9.10;1.00;;;;;;5065731;28;20246;-54
2022/05/01 02:33:40;;;;;;;12.07;9.83;;;9.10;99.90;;;;;;5057350;28;20571;-55
2022/05/01 02:36:07;;;;;;;14.77;10.27;;;9.00;1.00;;;;;;5067616;28;20218;-55
2022/05/01 02:38:36;;;;;;;14.43;11.33;;;8.70;1.00;;;;;;5061270;28;20286;-56
2022/05/01 02:41:03;;;;;;;15.23;10.93;;;8.40;1.00;;;;;;5059981;28;20237;-56
2022/05/01 02:43:30;;;;;;;14.20;10.27;;;8.30;1.00;;;;;;5060133;28;20251;-56
2022/05/01 02:45:57;;;;;;;13.23;11.07;;;8.50;1.00;;;;;;5063831;28;20203;-55
2022/05/01 02:48:23;;;;;;;13.93;11.87;;;8.70;1.00;;;;;;5063528;28;20488;-55
2022/05/01 02:50:50;;;;;;;16.43;11.40;;;8.60;99.90;;;;;;5058635;28;20234;-55
2022/05/01 02:53:17;;;;;;;14.80;11.63;;;8.70;99.90;;;;;;5057763;28;20206;-56
2022/05/01 02:55:44;;;;;;;14.93;11.47;;;8.70;53.60;;;;;;5065570;28;20213;-55
2022/05/01 02:58:11;;;;;;;14.90;11.27;;;8.70;1.00;;;;;;5065338;28;20741;-55
2022/05/01 03:00:37;;;;;;;15.73;11.50;;;8.70;1.00;;;;;;5063534;28;20191;-56
2022/05/01 03:03:05;;;;;;;14.63;11.67;;;8.60;99.90;;;;;;5057815;28;20216;-55
2022/05/01 03:05:33;;;;;;;16.03;11.57;;;8.50;99.90;;;;;;5056549;28;20207;-54
2022/05/01 03:07:59;;;;;;;16.20;11.23;;;8.50;1.00;;;;;;5063732;28;20229;-54
2022/05/01 03:10:25;;;;;;;14.50;12.03;;;8.50;1.00;;;;;;5060255;28;20207;-54
2022/05/01 03:12:52;;;;;;;15.67;11.57;;;8.60;1.00;;;;;;5061225;28;20195;-55
2022/05/01 03:15:19;;;;;;;16.10;12.27;;;8.60;99.90;;;;;;5057181;28;20628;-54
2022/05/01 03:23:17;;;;;;;14.70;11.20;;;8.40;1.00;;;;;;5061271;28;20249;-55
2022/05/01 03:25:44;;;;;;;14.93;11.60;;;8.40;1.00;;;;;;5057906;28;20305;-55
2022/05/01 03:28:10;;;;;;;19.80;12.70;;;8.40;1.00;;;;;;5061965;28;20628;-54
2022/05/01 03:30:37;;;;;;;15.03;11.67;;;8.40;1.00;;;;;;5061121;28;20293;-55
2022/05/01 03:33:07;;;;;;;18.67;12.90;;;8.40;1.00;;;;;;5061914;28;20228;-54
2022/05/01 03:35:38;;;;;;;16.43;12.63;;;8.40;1.00;;;;;;5052122;28;20753;-55
2022/05/01 03:38:08;;;;;;;14.23;11.80;;;8.40;1.00;;;;;;5062368;28;20633;-54
2022/05/01 03:40:35;;;;;;;16.10;12.07;;;8.30;1.00;;;;;;5058965;28;20299;-56
2022/05/01 03:43:03;;;;;;;17.17;12.60;;;8.30;1.00;;;;;;5060716;28;20665;-57
2022/05/01 03:45:30;;;;;;;17.20;13.27;;;8.40;1.00;;;;;;5060252;28;20735;-54
2022/05/01 03:47:57;;;;;;;16.83;12.80;;;8.30;1.00;;;;;;5060145;28;20206;-56
2022/05/01 03:50:24;;;;;;;18.53;14.03;;;8.30;1.00;;;;;;5052330;28;20229;-54
2022/05/01 03:52:51;;;;;;;17.47;12.53;;;8.20;1.00;;;;;;5051525;28;20341;-54
2022/05/01 03:55:18;;;;;;;17.47;12.83;;;8.20;1.00;;;;;;5060016;28;20269;-55
2022/05/01 03:57:45;;;;;;;15.00;12.20;;;8.20;1.00;;;;;;5061924;28;20713;-57
2022/05/01 04:00:18;;;;;;;18.70;12.37;;;8.00;1.00;;;;;;5051441;28;20641;-54
2022/05/01 04:02:46;;;;;;;18.50;13.90;;;8.00;1.00;;;;;;5053838;28;20209;-54
2022/05/01 04:05:14;;;;;;;15.47;12.77;;;8.10;1.00;;;;;;5051531;28;20208;-55
2022/05/01 04:07:42;;;;;;;16.17;12.83;;;8.10;1.00;;;;;;5051611;28;20664;-53
2022/05/01 04:10:09;;;;;;;19.27;13.37;;;8.00;1.00;;;;;;5056580;28;20204;-53
2022/05/01 04:12:38;;;;;;;19.70;13.67;;;8.00;1.00;;;;;;5051058;28;20193;-55
2022/05/01 04:15:09;;;;;;;16.37;12.40;;;7.90;1.00;;;;;;5044550;28;20979;-54
2022/05/01 04:17:39;;;;;;;16.47;12.00;;;7.90;1.00;;;;;;5055919;28;20566;-56
2022/05/01 04:20:15;;;;;;;17.47;12.90;;;7.90;1.00;;;;;;5056553;28;20258;-56
2022/05/01 04:22:45;;;;;;;19.20;14.30;;;7.90;72.60;;;;;;5054906;28;20230;-55
2022/05/01 04:25:23;;;;;;;20.13;14.40;;;8.00;1.00;;;;;;5059086;28;20575;-54
2022/05/01 04:27:52;;;;;;;17.13;12.93;;;8.00;1.00;;;;;;5060698;28;20250;-57
2022/05/01 04:30:20;;;;;;;18.70;12.97;;;8.00;1.00;;;;;;5060836;28;20255;-56
2022/05/01 04:32:57;;;;;;;18.17;13.40;;;8.00;1.00;;;;;;5058421;28;20667;-55
2022/05/01 04:35:32;;;;;;;18.63;13.03;;;8.00;1.00;;;;;;5051303;28;20334;-55
2022/05/01 04:38:01;;;;;;;20.03;13.83;;;8.00;1.00;;;;;;5060059;28;20663;-54
2022/05/01 04:40:29;;;;;;;18.27;13.60;;;7.90;1.00;;;;;;5057754;28;20235;-55
2022/05/01 04:43:14;;;;;;;18.57;13.47;;;8.00;1.00;;;;;;5054977;28;20203;-55
2022/05/01 04:45:42;;;;;;;17.57;13.03;;;8.00;32.50;;;;;;5056864;28;20674;-54
2022/05/01 04:48:10;;;;;;;16.37;12.40;;;8.00;1.00;;;;;;5053517;28;20684;-56
2022/05/01 04:50:37;;;;;;;17.43;13.33;;;7.90;7.60;;;;;;5046262;28;20712;-55
2022/05/01 04:53:09;;;;;;;16.47;12.37;;;8.00;1.00;;;;;;5060580;28;20671;-54
2022/05/01 04:55:41;;;;;;;17.23;12.23;;;7.80;1.00;;;;;;5059878;28;20212;-55
2022/05/01 04:58:09;;;;;;;16.20;11.73;;;7.90;99.00;;;;;;5061973;28;20642;-61
2022/05/01 05:00:36;;;;;;;20.80;13.40;;;7.90;1.00;;;;;;5061566;28;20232;-54
2022/05/01 05:03:04;;;;;;;16.30;12.73;;;7.90;1.00;;;;;;5063789;28;20201;-55
2022/05/01 05:05:32;;;;;;;16.50;11.90;;;7.90;8.50;;;;;;5061977;28;20205;-57
2022/05/01 05:10:48;;;;;;;16.93;13.00;;;8.00;1.00;;;;;;5056507;28;20742;-54
2022/05/01 05:13:27;;;;;;;18.40;13.43;;;8.10;1.00;;;;;;5054591;28;20201;-56
2022/05/01 05:15:58;;;;;;;18.07;12.97;;;8.20;14.60;;;;;;5058783;28;20217;-56
2022/05/01 05:18:27;;;;;;;21.43;14.03;;;8.10;27.20;;;;;;5056564;28;20655;-56
2022/05/01 05:20:53;;;;;;;20.57;16.23;;;8.20;13.10;;;;;;5063878;28;20313;-55
2022/05/01 05:23:20;;;;;;;19.63;15.20;;;8.10;24.10;;;;;;5066847;28;20531;-56
2022/05/01 05:25:47;;;;;;;23.20;15.53;;;8.20;99.90;;;;;;5065064;28;20233;-54
2022/05/01 05:28:14;;;;;;;22.03;14.93;;;8.20;83.90;;;;;;5062308;28;20230;-55
2022/05/01 05:30:41;;;;;;;22.53;15.43;;;8.30;90.50;;;;;;5061392;28;20195;-55
2022/05/01 05:33:08;;;;;;;21.70;15.50;;;8.40;55.70;;;;;;5056210;28;20258;-58
2022/05/01 05:35:36;;;;;;;21.83;15.60;;;8.50;43.30;;;;;;5063718;28;20298;-53
2022/05/01 05:38:03;;;;;;;20.73;15.17;;;8.60;1.00;;;;;;5065468;28;20210;-54
2022/05/01 05:40:29;;;;;;;23.60;15.50;;;8.60;1.00;;;;;;5062156;28;20240;-57
2022/05/01 05:42:56;;;;;;;23.80;15.60;;;8.60;1.00;;;;;;5061039;28;21030;-57
2022/05/01 05:45:24;;;;;;;21.57;15.60;;;8.60;1.00;;;;;;5062359;28;20661;-55
2022/05/01 05:47:51;;;;;;;24.57;15.97;;;8.60;1.00;;;;;;5062965;28;20246;-55
2022/05/01 05:50:18;;;;;;;20.23;15.60;;;8.50;12.60;;;;;;5062268;28;20381;-56
2022/05/01 05:52:45;;;;;;;22.90;15.00;;;8.70;1.00;;;;;;5055817;28;20248;-54
2022/05/01 05:55:11;;;;;;;25.80;16.20;;;8.80;1.00;;;;;;5059845;28;20206;-60
2022/05/01 05:57:38;;;;;;;19.97;14.40;;;8.80;1.00;;;;;;5063223;28;20209;-54
2022/05/01 06:00:06;;;;;;;20.50;15.00;;;8.90;1.00;;;;;;5060813;28;20220;-54
2022/05/01 06:02:35;;;;;;;22.20;15.93;;;9.10;1.00;;;;;;5063663;28;20908;-57
2022/05/01 06:05:03;;;;;;;24.40;15.20;;;9.10;1.00;;;;;;5051768;28;20203;-56
2022/05/01 06:07:30;;;;;;;21.27;14.40;;;9.00;1.00;;;;;;5065941;28;20244;-54
2022/05/01 06:09:57;;;;;;;21.03;15.30;;;9.20;1.00;;;;;;5061773;28;20719;-54
2022/05/01 06:12:24;;;;;;;22.53;15.37;;;9.20;99.90;;;;;;5061168;28;20229;-54
2022/05/01 06:14:50;;;;;;;22.17;15.00;;;9.20;1.00;;;;;;5063537;28;20192;-56
2022/05/01 06:17:17;;;;;;;22.27;14.20;;;9.40;1.00;;;;;;5056918;28;20761;-53
2022/05/01 06:19:44;;;;;;;17.13;13.47;;;9.20;98.40;;;;;;5059471;28;20715;-54
2022/05/01 06:22:11;;;;;;;21.23;14.47;;;9.20;1.00;;;;;;5060447;28;20586;-54
2022/05/01 06:24:38;;;;;;;18.77;14.37;;;9.20;99.90;;;;;;5057753;28;20665;-54
2022/05/01 06:27:05;;;;;;;21.27;15.00;;;9.20;99.90;;;;;;5060818;28;20203;-56
2022/05/01 06:29:32;;;;;;;18.33;14.07;;;9.50;1.00;;;;;;5060043;28;20239;-55
2022/05/01 06:31:59;;;;;;;20.47;13.70;;;9.70;1.00;;;;;;5063340;28;20264;-55
2022/05/01 06:34:26;;;;;;;20.97;14.90;;;9.80;1.00;;;;;;5055214;28;20276;-55
2022/05/01 06:36:54;;;;;;;17.60;13.33;;;9.80;99.90;;;;;;5052234;28;20248;-55
2022/05/01 06:39:20;;;;;;;18.47;13.57;;;10.00;1.00;;;;;;5060100;28;20277;-54
2022/05/01 06:41:47;;;;;;;22.03;14.43;;;10.00;1.00;;;;;;5061924;28;20306;-55
2022/05/01 06:44:14;;;;;;;18.77;14.70;;;9.80;60.50;;;;;;5059773;28;20203;-54
2022/05/01 06:46:41;;;;;;;22.33;14.00;;;9.90;1.00;;;;;;5063576;28;20245;-55
2022/05/01 06:49:08;;;;;;;17.10;13.10;;;9.90;1.00;;;;;;5057681;28;20205;-54
2022/05/01 06:51:35;;;;;;;17.70;12.97;;;10.00;1.00;;;;;;5059701;28;20248;-55
2022/05/01 06:54:03;;;;;;;16.20;12.47;;;9.90;99.90;;;;;;5053266;28;20241;-55
2022/05/01 06:56:30;;;;;;;20.17;14.00;;;10.00;1.00;;;;;;5062583;28;20309;-54
2022/05/01 06:58:57;;;;;;;17.63;12.57;;;10.20;99.90;;;;;;5061298;28;20198;-55
2022/05/01 07:01:23;;;;;;;16.97;11.53;;;10.40;99.90;;;;;;5059152;28;20675;-56
2022/05/01 07:03:52;;;;;;;16.63;12.87;;;10.50;8.50;;;;;;5050813;28;20289;-55
2022/05/01 07:06:19;;;;;;;18.40;12.37;;;10.50;1.00;;;;;;5062906;28;20214;-55
2022/05/01 07:08:46;;;;;;;16.10;12.07;;;10.40;1.00;;;;;;5059642;28;20619;-55
2022/05/01 07:11:14;;;;;;;17.80;13.70;;;10.40;99.90;;;;;;5059316;28;20226;-55
2022/05/01 07:13:40;;;;;;;16.10;12.70;;;10.60;99.90;;;;;;5058943;28;20302;-55
2022/05/01 07:16:07;;;;;;;14.97;12.00;;;10.70;1.00;;;;;;5059217;28;20317;-56
2022/05/01 07:18:34;;;;;;;17.87;12.50;;;11.00;1.00;;;;;;5053249;28;20967;-53
2022/05/01 07:21:01;;;;;;;17.27;11.47;;;11.00;1.00;;;;;;5054051;28;20203;-56
2022/05/01 07:23:28;;;;;;;15.93;12.77;;;11.20;1.00;;;;;;5054688;28;20305;-53
2022/05/01 07:25:55;;;;;;;15.47;12.10;;;11.60;1.00;;;;;;5052602;28;20196;-54
2022/05/01 07:28:22;;;;;;;14.40;11.63;;;11.60;1.00;;;;;;5056959;28;20200;-56
2022/05/01 07:30:49;;;;;;;17.30;11.47;;;11.80;99.90;;;;;;5055230;28;20207;-55
2022/05/01 07:33:16;;;;;;;15.37;12.00;;;11.50;93.20;;;;;;5061914;28;20306;-55
2022/05/01 07:35:43;;;;;;;16.20;12.53;;;11.70;99.90;;;;;;5054779;28;20248;-55
2022/05/01 07:38:10;;;;;;;14.93;12.03;;;11.70;1.00;;;;;;5050070;28;20254;-54
2022/05/01 07:40:36;;;;;;;16.87;11.73;;;11.80;99.90;;;;;;5058491;28;20229;-55
2022/05/01 07:43:03;;;;;;;16.57;11.53;;;12.00;1.00;;;;;;5055462;28;20279;-54
2022/05/01 07:45:30;;;;;;;16.57;11.73;;;12.30;99.90;;;;;;5054128;28;20227;-54
2022/05/01 07:48:05;;;;;;;12.47;10.93;;;12.50;1.00;;;;;;5055299;28;20645;-53
2022/05/01 07:50:32;;;;;;;12.10;9.67;;;12.60;99.90;;;;;;5050458;28;20239;-56
2022/05/01 07:52:59;;;;;;;12.27;9.03;;;12.50;1.00;;;;;;5050862;28;20283;-54
2022/05/01 07:55:25;;;;;;;11.47;9.73;;;12.80;1.00;;;;;;5058586;28;20229;-53
2022/05/01 07:57:52;;;;;;;12.00;8.47;;;12.90;99.90;;;;;;5053812;28;20902;-54
2022/05/01 08:00:19;;;;;;;10.63;8.07;;;13.10;99.90;;;;;;5057291;28;20238;-54
2022/05/01 08:05:32;;;;;;;11.27;8.47;;;13.40;1.00;;;;;;5056482;28;20203;-54
2022/05/01 08:07:59;;;;;;;13.47;8.27;;;13.60;1.00;;;;;;5051437;28;20310;-54
2022/05/01 08:10:25;;;;;;;11.47;8.07;;;13.60;1.00;;;;;;5057999;28;20211;-53
2022/05/01 08:12:52;;;;;;;11.73;8.03;;;13.60;1.00;;;;;;5057441;28;20300;-54
2022/05/01 08:15:19;;;;;;;8.97;7.47;;;13.40;1.00;;;;;;5056043;28;20237;-54
2022/05/01 08:17:47;;;;;;;10.47;8.17;;;14.00;1.00;;;;;;5056549;28;20216;-54
2022/05/01 08:23:08;;;;;;;11.43;7.87;;;14.40;1.00;;;;;;5045857;28;20232;-53
2022/05/01 08:25:36;;;;;;;10.07;7.67;;;14.30;1.00;;;;;;5050246;28;20194;-54
2022/05/01 08:28:06;;;;;;;10.87;7.40;;;14.70;1.00;;;;;;5060648;28;21388;-55
2022/05/01 08:30:35;;;;;;;4.43;3.80;;;14.90;1.00;;;;;;5057328;28;20199;-53
2022/05/01 08:33:03;;;;;;;6.27;4.47;;;14.60;99.90;;;;;;5054637;28;20467;-53
2022/05/01 08:35:30;;;;;;;8.50;5.33;;;14.70;99.90;;;;;;5063967;28;20196;-54
2022/05/01 08:37:57;;;;;;;5.83;4.97;;;15.10;1.00;;;;;;5057761;28;20257;-54
2022/05/01 08:40:24;;;;;;;7.13;4.70;;;15.40;1.00;;;;;;5059134;28;20247;-54
2022/05/01 08:42:52;;;;;;;3.77;2.53;;;15.30;99.90;;;;;;5058433;28;20321;-54
2022/05/01 08:45:26;;;;;;;5.63;3.77;;;15.60;41.10;;;;;;5057379;28;20233;-53
2022/05/01 08:48:04;;;;;;;5.30;4.30;;;15.70;99.90;;;;;;5041070;28;20230;-54
2022/05/01 08:50:34;;;;;;;6.73;3.90;;;16.20;99.90;;;;;;5050021;28;20340;-54
2022/05/01 08:53:02;;;;;;;4.60;4.20;;;16.40;99.90;;;;;;5062777;28;20198;-54
2022/05/01 08:55:31;;;;;;;5.87;4.63;;;16.10;99.90;;;;;;5059158;28;20205;-53
2022/05/01 08:58:01;;;;;;;7.03;4.50;;;16.00;99.90;;;;;;5055531;28;20440;-54
2022/05/01 09:00:30;;;;;;;5.50;4.70;;;16.40;99.90;;;;;;5048160;28;20292;-53
2022/05/01 09:02:57;;;;;;;5.07;4.53;;;15.90;99.90;;;;;;5047016;28;20326;-52
2022/05/01 09:05:24;;;;;;;6.10;5.07;;;15.10;99.90;;;;;;5055258;28;20200;-55
2022/05/01 09:07:50;;;;;;;6.67;4.10;;;15.40;99.90;;;;;;5056488;28;20514;-54
2022/05/01 09:10:20;;;;;;;6.00;3.90;;;15.00;99.90;;;;;;5059751;28;20211;-54
2022/05/01 09:12:49;;;;;;;4.33;3.87;;;15.40;99.90;;;;;;5059068;28;20216;-54
2022/05/01 09:15:35;;;;;;;5.20;4.23;;;16.00;99.90;;;;;;5058342;28;20726;-54
2022/05/01 09:18:05;;;;;;;4.93;4.13;;;16.00;67.10;;;;;;5059250;28;20281;-54
2022/05/01 09:20:32;;;;;;;6.90;4.63;;;15.80;99.90;;;;;;5061870;28;20287;-54
2022/05/01 09:23:00;;;;;;;6.80;4.80;;;15.70;99.90;;;;;;5055794;28;20267;-54
2022/05/01 09:25:28;;;;;;;7.10;5.43;;;15.50;99.90;;;;;;5059855;28;20234;-53
2022/05/01 09:27:57;;;;;;;7.37;4.40;;;15.40;99.90;;;;;;5060365;28;20276;-53
2022/05/01 09:30:38;;;;;;;6.63;4.23;;;15.50;99.90;;;;;;5052968;28;20238;-54
2022/05/01 09:33:15;;;;;;;7.17;4.57;;;15.80;53.40;;;;;;5057781;28;20782;-53
2022/05/01 09:35:42;;;;;;;6.87;4.37;;;15.70;99.90;;;;;;5056312;28;20995;-54
2022/05/01 09:38:24;;;;;;;6.67;5.47;;;15.30;92.10;;;;;;5058792;28;20508;-55
2022/05/01 09:40:54;;;;;;;6.27;4.90;;;14.90;99.90;;;;;;5060142;28;20225;-56
2022/05/01 09:43:52;;;;;;;5.73;4.60;;;15.30;99.90;;;;;;5064464;28;20199;-55
2022/05/01 09:46:24;;;;;;;6.07;4.50;;;15.20;99.90;;;;;;5061552;28;20295;-54
2022/05/01 09:49:01;;;;;;;5.03;4.53;;;14.80;99.90;;;;;;5057623;28;20203;-53
2022/05/01 09:51:30;;;;;;;6.03;4.50;;;15.00;99.90;;;;;;5056335;28;20293;-54
2022/05/01 09:53:59;;;;;;;5.90;4.67;;;15.10;99.90;;;;;;5059501;28;20204;-54
2022/05/01 09:56:26;;;;;;;4.87;4.33;;;15.10;99.90;;;;;;5055209;28;20207;-53
2022/05/01 09:59:00;;;;;;;5.53;4.13;;;15.00;99.90;;;;;;5055944;28;20202;-53
2022/05/01 10:01:30;;;;;;;7.17;5.03;;;14.90;99.90;;;;;;5061044;28;20233;-53
2022/05/01 10:04:02;;;;;;;8.50;5.33;;;14.40;99.90;;;;;;5062889;28;20224;-55
2022/05/01 10:06:31;;;;;;;6.17;4.83;;;14.30;99.90;;;;;;5063498;28;20199;-55
2022/05/01 10:08:58;;;;;;;6.80;5.00;;;14.50;99.90;;;;;;5062072;28;20213;-56
2022/05/01 10:11:28;;;;;;;6.70;4.53;;;14.20;99.90;;;;;;5069050;28;20244;-53
2022/05/01 10:13:56;;;;;;;6.43;4.93;;;14.10;99.90;;;;;;5065986;28;20254;-53
2022/05/01 10:16:25;;;;;;;6.87;5.50;;;14.40;99.90;;;;;;5064950;28;20274;-54
2022/05/01 10:18:56;;;;;;;8.27;5.53;;;14.60;99.90;;;;;;5062647;28;20231;-54
2022/05/01 10:21:47;;;;;;;6.60;5.13;;;14.20;99.90;;;;;;5063558;28;20617;-55
2022/05/01 10:24:15;;;;;;;6.43;5.40;;;14.30;99.90;;;;;;5065515;28;20220;-53
2022/05/01 10:27:24;;;;;;;7.77;5.00;;;14.20;99.90;;;;;;5070031;28;20249;-55
2022/05/01 10:33:07;;;;;;;7.10;4.90;;;13.90;99.90;;;;;;5065588;28;20245;-54
2022/05/01 10:35:41;;;;;;;5.83;5.13;;;13.90;99.90;;;;;;5050901;28;20215;-55
2022/05/01 10:38:24;;;;;;;6.07;4.70;;;13.90;99.90;;;;;;5070631;28;20219;-55
2022/05/01 10:40:58;;;;;;;5.97;5.00;;;14.00;99.90;;;;;;5069201;28;20706;-55
2022/05/01 10:43:36;;;;;;;7.07;5.30;;;14.50;99.90;;;;;;5051636;28;20232;-55
2022/05/01 10:46:24;;;;;;;7.33;5.80;;;14.60;99.90;;;;;;5064327;28;20207;-54
2022/05/01 10:48:52;;;;;;;5.63;5.03;;;14.70;99.90;;;;;;5062341;28;20225;-55
2022/05/01 10:51:29;;;;;;;8.47;5.57;;;14.80;99.90;;;;;;5070209;28;20219;-54
2022/05/01 10:54:19;;;;;;;6.60;4.77;;;14.70;99.90;;;;;;5068522;28;20636;-54
2022/05/01 10:56:51;;;;;;;7.87;5.07;;;15.00;99.90;;;;;;5061819;28;20553;-55
2022/05/01 10:59:59;;;;;;;7.07;4.63;;;15.00;99.90;;;;;;5064897;28;20416;-54
2022/05/01 11:02:38;;;;;;;8.03;4.87;;;15.10;99.90;;;;;;5047822;28;20231;-54
2022/05/01 11:05:10;;;;;;;7.13;5.10;;;15.20;99.90;;;;;;5064044;28;20299;-54
2022/05/01 11:07:39;;;;;;;6.70;5.10;;;15.40;99.90;;;;;;5059473;28;20298;-54
2022/05/01 11:10:10;;;;;;;5.50;4.77;;;15.20;99.90;;;;;;5063595;28;20569;-53
2022/05/01 11:12:38;;;;;;;5.73;4.93;;;15.20;99.90;;;;;;5066714;28;20211;-54
2022/05/01 11:15:07;;;;;;;7.70;5.50;;;15.20;99.90;;;;;;5067997;28;20626;-54
2022/05/01 11:17:36;;;;;;;6.97;4.90;;;15.00;99.90;;;;;;5063211;28;20249;-54
2022/05/01 11:20:23;;;;;;;5.63;4.57;;;15.00;99.90;;;;;;5065905;28;20229;-54
2022/05/01 11:22:50;;;;;;;7.07;5.43;;;14.70;99.90;;;;;;5053296;28;20263;-54
2022/05/01 11:25:18;;;;;;;8.43;5.13;;;14.90;99.90;;;;;;5068380;28;20251;-53
2022/05/01 11:27:52;;;;;;;6.40;4.80;;;15.10;99.90;;;;;;5069184;28;20244;-54
2022/05/01 11:30:27;;;;;;;5.97;4.67;;;14.90;99.90;;;;;;5069019;28;20246;-54
2022/05/01 11:33:05;;;;;;;6.70;5.27;;;14.90;99.90;;;;;;5058130;28;20210;-55
2022/05/01 11:35:53;;;;;;;6.87;5.00;;;15.10;99.90;;;;;;5065994;28;20713;-54
2022/05/01 11:38:30;;;;;;;6.80;5.07;;;15.40;99.90;;;;;;5059844;28;20252;-54
2022/05/01 11:41:00;;;;;;;6.43;5.00;;;15.70;99.90;;;;;;5051252;28;20260;-54
2022/05/01 11:43:28;;;;;;;5.80;5.03;;;15.90;99.90;;;;;;5067658;28;20209;-54
2022/05/01 11:46:16;;;;;;;6.00;4.30;;;15.60;52.90;;;;;;5059582;28;20637;-55
2022/05/01 11:48:43;;;;;;;6.67;4.60;;;15.70;1.00;;;;;;5067080;28;20361;-55
2022/05/01 11:51:11;;;;;;;7.17;4.67;;;15.70;33.90;;;;;;5062448;28;20297;-54
2022/05/01 11:53:39;;;;;;;6.23;4.90;;;16.20;1.00;;;;;;5065416;28;20683;-54
2022/05/01 12:04:38;;;;;;;8.83;4.50;;;16.30;1.00;;;;;;5065064;28;20732;-54
2022/05/01 12:07:13;;;;;;;6.97;4.20;;;16.80;1.00;;;;;;5063885;28;20256;-54
2022/05/01 12:09:40;;;;;;;5.80;4.00;;;16.80;1.00;;;;;;5065406;28;20683;-54
2022/05/01 12:12:12;;;;;;;5.90;4.67;;;16.70;1.00;;;;;;5065763;28;20201;-54
2022/05/01 12:14:40;;;;;;;6.20;5.17;;;16.40;1.00;;;;;;5066260;28;20216;-55
2022/05/01 12:17:13;;;;;;;6.67;4.50;;;16.70;1.00;;;;;;5062891;28;20586;-55
2022/05/01 12:19:42;;;;;;;6.50;5.60;;;16.90;1.00;;;;;;5059928;28;20643;-54
2022/05/01 12:22:14;;;;;;;5.10;4.07;;;16.00;1.00;;;;;;5067714;28;20227;-54
2022/05/01 12:24:43;;;;;;;7.03;4.90;;;15.80;1.00;;;;;;5071782;28;20257;-54
2022/05/01 12:27:11;;;;;;;7.90;4.13;;;15.90;1.00;;;;;;5068699;28;20570;-54
2022/05/01 12:29:42;;;;;;;5.00;4.50;;;16.20;1.00;;;;;;5068654;28;20241;-54
2022/05/01 12:32:14;;;;;;;5.90;4.27;;;16.20;1.00;;;;;;5067622;28;20267;-54
2022/05/01 12:34:44;;;;;;;5.83;4.17;;;16.00;1.00;;;;;;5066402;28;20256;-54
2022/05/01 12:37:19;;;;;;;6.00;4.23;;;16.10;1.00;;;;;;5067982;28;20218;-54
2022/05/01 12:43:50;;;;;;;5.43;4.83;;;16.10;1.00;;;;;;5067933;28;20279;-54
2022/05/01 12:45:54;;;;;;;6.23;4.73;;;15.70;1.00;;;;;;5068936;28;20288;-56
2022/05/01 12:48:21;;;;;;;7.43;4.33;;;15.70;1.00;;;;;;5057048;28;20255;-54
2022/05/01 12:50:52;;;;;;;5.20;4.60;;;15.60;1.00;;;;;;5063730;28;20305;-54
2022/05/01 12:53:30;;;;;;;4.40;4.00;;;15.90;1.00;;;;;;5067202;28;20669;-54
2022/05/01 12:56:02;;;;;;;5.93;4.70;;;16.00;1.00;;;;;;5068187;28;20201;-54
2022/05/01 12:58:33;;;;;;;4.80;4.00;;;15.60;1.00;;;;;;5046074;28;20247;-53
2022/05/01 13:01:04;;;;;;;4.97;4.40;;;15.40;1.00;;;;;;5062724;28;20697;-54
2022/05/01 13:03:36;;;;;;;7.07;4.43;;;15.40;1.00;;;;;;5062729;28;20197;-54
2022/05/01 13:06:14;;;;;;;5.20;4.10;;;16.10;1.00;;;;;;5068935;28;20233;-56
2022/05/01 13:08:46;;;;;;;4.77;4.07;;;16.80;1.00;;;;;;5066825;28;20276;-53
2022/05/01 13:11:15;;;;;;;4.57;4.07;;;17.50;1.00;;;;;;5061701;28;20656;-52
2022/05/01 13:13:48;;;;;;;7.07;4.23;;;17.40;1.00;;;;;;5060057;28;20594;-55
2022/05/01 13:16:31;;;;;;;7.43;3.97;;;17.50;1.00;;;;;;5070386;28;20237;-54
2022/05/01 13:19:10;;;;;;;5.67;4.23;;;17.00;1.00;;;;;;5065767;28;20581;-54
2022/05/01 13:21:43;;;;;;;4.90;4.10;;;16.80;1.00;;;;;;5072324;28;20269;-55
2022/05/01 13:24:18;;;;;;;5.90;4.60;;;17.30;1.00;;;;;;5069269;28;20544;-54
2022/05/01 13:26:46;;;;;;;5.33;4.47;;;17.30;1.00;;;;;;5073169;28;20199;-54
2022/05/01 13:29:14;;;;;;;6.13;4.73;;;17.30;1.00;;;;;;5071678;28;20389;-55
2022/05/01 13:31:46;;;;;;;9.30;4.50;;;16.90;1.00;;;;;;5072199;28;20206;-53
2022/05/01 13:34:14;;;;;;;5.97;4.20;;;16.10;1.00;;;;;;5068605;28;20193;-54
2022/05/01 13:36:41;;;;;;;7.43;4.67;;;16.30;1.00;;;;;;5072023;28;20252;-55
2022/05/01 13:39:09;;;;;;;8.50;5.20;;;16.60;1.00;;;;;;5047126;28;20213;-54